Monticello Municipal Ellis Field
KLLQ : now visible

Airfield :











YOU CAN JOIN US ON...

 
LOGIN :

Register | Disclaimer

   EN    FR    IT 

 









Legend :    VFR   Marginal VFR   IFR   Intensive IFR   Very Intensive IFR
Visi :
Ceiling :
>= 8 km
>= 3000ft
5 to 8 km
1000 to 3000 ft
1500m to 5 km
500 to 1000 ft
800 to 1500m
200 to 500 ft
< 800m
< 200 ft
Symbols :   Thunderstorms  Fog  Heavy snow  Heavy precipitations  Wind > 20 kt







- Airport Elevation : 270 ft


KLLQ - Monticello Municipal Ellis Field

CURRENT METAR :
  • 210353Z AUTO 00000KT 9SM OVC100 24/22 A3014 RMK AO2 SLP201 T02390222

EXPIRED METARs :
  • 210253Z AUTO 24004KT 10SM FEW050 BKN095 24/22 A3014 RMK AO2 SLP203 T02390217 53019
  • 210153Z AUTO VRB03KT 10SM SCT049 BKN075 OVC090 24/22 A3012 RMK AO2 SLP196 T02440222

TAF KLLQ
Valid from the 21 at 00:00 until the 22 at 00:00 UTC


202325Z 2100/2124 VRB04KT 4SM BR VCSH SCT020 BKN040
FM210600 VRB04KT 6SM BR BKN040
TEMPO 2111/2115 4SM BR BKN025
FM211500 16007KT P6SM SCT025 BKN040
No reported NOTAMs for that airfield.



MET'MAP, your aeronautical weather chart ! - Copyright ORBIFLY December 2007 - Disclaimer

ORBIFLY MET'MAP TEAM :

Programming & Development : Alexandra Zaïnal
Concept & Development : Baudouin d'Aumeries
Co-Development & Prog : Marc-Olivier Méhu
Technical & hardware support : Manuel Goepfert

Contact : metmap@orbifly.com




SOURCES & CREDITS :

   NOAA       Earth
Advisory